Time;durP1;ratioP1;P1;durP2;ratioP2;P2;SDS_P1;SDS_P2;PMS_P1;PMS_P2;Temp;Humidity;BMP_temperature;BMP_pressure;BME280_temperature;BME280_humidity;BME280_pressure;Samples;Min_cycle;Max_cycle;Signal;HPM_P1;HPM_P2
2022/10/18 00:02:15;;;;;;;7.40;4.97;;;13.60;99.90;;;;;;5013230;28;20030;-75
2022/10/18 00:04:40;;;;;;;8.02;4.72;;;13.60;99.90;;;;;;4995579;28;20034;-75
2022/10/18 00:07:06;;;;;;;10.18;5.72;;;13.60;99.90;;;;;;5013150;28;20397;-75
2022/10/18 00:09:32;;;;;;;12.43;5.55;;;13.50;99.90;;;;;;5013069;28;20061;-75
2022/10/18 00:11:58;;;;;;;17.30;5.97;;;13.50;99.90;;;;;;5012882;28;20038;-75
2022/10/18 00:14:24;;;;;;;23.42;5.38;;;13.50;99.90;;;;;;5013085;28;20014;-75
2022/10/18 00:16:49;;;;;;;9.95;5.05;;;13.50;99.90;;;;;;5013025;28;20358;-75
2022/10/18 00:19:15;;;;;;;9.02;5.03;;;13.50;99.90;;;;;;5013516;28;20022;-75
2022/10/18 00:21:42;;;;;;;8.65;5.57;;;13.40;99.90;;;;;;5012873;28;20030;-75
2022/10/18 00:24:08;;;;;;;14.50;5.65;;;13.40;99.90;;;;;;5013517;28;20022;-75
2022/10/18 00:26:33;;;;;;;11.20;6.03;;;13.40;99.90;;;;;;4995303;28;20056;-75
2022/10/18 00:29:02;;;;;;;13.30;6.55;;;13.30;99.90;;;;;;5012976;28;20022;-75
2022/10/18 00:31:36;;;;;;;8.95;5.03;;;13.30;99.90;;;;;;4995081;28;20452;-75
2022/10/18 00:34:05;;;;;;;12.27;5.55;;;13.30;99.90;;;;;;4995260;28;20104;-75
2022/10/18 00:36:33;;;;;;;10.55;4.93;;;13.30;99.90;;;;;;5012912;28;20018;-75
2022/10/18 00:38:59;;;;;;;12.90;5.70;;;13.20;99.90;;;;;;4997378;28;20167;-75
2022/10/18 00:41:29;;;;;;;111.25;8.07;;;13.10;99.90;;;;;;5016253;28;20026;-75
2022/10/18 00:44:23;;;;;;;46.47;7.13;;;13.10;99.90;;;;;;5016060;28;20030;-75
2022/10/18 00:46:49;;;;;;;91.90;8.02;;;13.10;99.90;;;;;;5015441;28;20450;-75
2022/10/18 00:49:18;;;;;;;64.00;6.90;;;13.10;99.90;;;;;;4998382;28;20058;-75
2022/10/18 00:51:57;;;;;;;46.58;6.70;;;13.00;99.90;;;;;;4998347;28;20045;-75
2022/10/18 00:54:24;;;;;;;78.80;7.63;;;12.90;99.90;;;;;;5016657;28;20481;-75
2022/10/18 00:56:50;;;;;;;83.28;8.20;;;12.90;99.90;;;;;;5016554;28;20022;-75
2022/10/18 00:59:17;;;;;;;38.28;8.13;;;12.80;99.90;;;;;;4998347;28;20088;-75
2022/10/18 01:01:43;;;;;;;71.28;7.60;;;13.00;99.90;;;;;;4998515;28;20021;-75
2022/10/18 01:04:09;;;;;;;105.63;8.00;;;12.80;99.90;;;;;;5016394;28;20029;-75
2022/10/18 01:06:44;;;;;;;29.98;6.28;;;12.80;99.90;;;;;;5015719;28;20022;-75
2022/10/18 01:09:40;;;;;;;42.20;6.47;;;12.80;99.90;;;;;;5016023;28;20026;-75
2022/10/18 01:12:12;;;;;;;140.00;8.60;;;12.80;99.90;;;;;;5015514;28;20049;-75
2022/10/18 01:15:01;;;;;;;22.52;5.22;;;12.80;99.90;;;;;;4998086;28;20104;-75
2022/10/18 01:17:43;;;;;;;92.97;6.88;;;12.70;99.90;;;;;;5016107;28;20018;-75
2022/10/18 01:20:20;;;;;;;59.45;5.75;;;12.70;99.90;;;;;;5015475;28;20030;-75
2022/10/18 01:23:05;;;;;;;36.92;4.93;;;12.70;99.90;;;;;;5015558;28;20033;-75
2022/10/18 01:25:47;;;;;;;41.55;4.38;;;12.70;99.90;;;;;;5015767;28;20030;-75
2022/10/18 01:28:21;;;;;;;31.25;3.63;;;12.70;99.90;;;;;;5015459;28;20022;-75
2022/10/18 01:30:55;;;;;;;62.75;4.40;;;12.60;99.90;;;;;;4997709;28;20032;-75
2022/10/18 01:33:49;;;;;;;52.15;4.05;;;12.60;99.90;;;;;;4997651;28;20109;-75
2022/10/18 01:36:21;;;;;;;56.58;4.25;;;12.50;99.90;;;;;;5015879;28;20018;-75
2022/10/18 01:38:50;;;;;;;51.67;4.22;;;12.50;99.90;;;;;;4997638;28;20104;-75
2022/10/18 01:41:18;;;;;;;14.77;3.47;;;12.50;99.90;;;;;;5015056;28;20018;-75
2022/10/18 01:43:47;;;;;;;24.33;3.80;;;12.40;99.90;;;;;;5015184;28;20073;-74
2022/10/18 01:46:16;;;;;;;23.17;3.33;;;12.40;99.90;;;;;;5015060;28;20033;-75
2022/10/18 01:48:42;;;;;;;26.33;3.65;;;12.40;99.90;;;;;;5014730;28;20041;-75
2022/10/18 01:51:08;;;;;;;45.08;4.20;;;12.30;99.90;;;;;;5015437;28;20034;-75
2022/10/18 01:53:34;;;;;;;25.80;3.15;;;12.30;99.90;;;;;;5014850;28;20096;-75
2022/10/18 01:56:21;;;;;;;38.35;3.70;;;12.30;99.90;;;;;;5015398;28;20026;-75
2022/10/18 01:59:07;;;;;;;58.42;3.88;;;12.30;99.90;;;;;;4997335;28;20026;-75
2022/10/18 02:01:51;;;;;;;88.50;4.38;;;12.20;99.90;;;;;;5014658;28;20026;-75
2022/10/18 02:04:36;;;;;;;31.95;3.33;;;12.20;99.90;;;;;;4997249;28;20030;-75
2022/10/18 02:07:18;;;;;;;29.27;3.35;;;12.20;99.90;;;;;;5014739;28;20028;-75
2022/10/18 02:10:02;;;;;;;12.95;2.90;;;12.20;99.90;;;;;;5014532;28;20040;-75
2022/10/18 02:12:30;;;;;;;6.90;2.20;;;12.10;99.90;;;;;;5014514;28;20056;-75
2022/10/18 02:14:57;;;;;;;56.95;3.20;;;12.10;99.90;;;;;;5014630;28;20022;-75
2022/10/18 02:17:27;;;;;;;133.25;6.57;;;12.10;99.90;;;;;;5014591;28;20024;-75
2022/10/18 02:19:54;;;;;;;79.93;4.05;;;12.00;99.90;;;;;;5014303;28;20067;-75
2022/10/18 02:22:25;;;;;;;357.30;11.98;;;12.00;99.90;;;;;;5014408;28;20029;-75
2022/10/18 02:24:55;;;;;;;44.20;2.17;;;12.00;99.90;;;;;;5014855;28;20033;-74
2022/10/18 02:27:23;;;;;;;29.90;2.50;;;12.00;99.90;;;;;;5014258;28;20113;-75
2022/10/18 02:29:49;;;;;;;;;;;11.90;99.90;;;;;;5014676;28;20025;-74
2022/10/18 02:32:33;;;;;;;16.85;2.15;;;11.90;99.90;;;;;;4996565;28;19916;-75
2022/10/18 02:35:05;;;;;;;23.13;2.17;;;11.90;99.90;;;;;;4996892;28;20071;-75
2022/10/18 02:37:35;;;;;;;12.38;2.08;;;11.90;99.90;;;;;;4996799;28;20112;-75
2022/10/18 02:40:03;;;;;;;12.70;2.05;;;11.80;99.90;;;;;;5014054;28;20017;-75
2022/10/18 02:42:39;;;;;;;9.90;1.73;;;11.80;99.90;;;;;;4996317;28;20021;-75
2022/10/18 02:45:05;;;;;;;4.03;2.10;;;11.70;99.90;;;;;;5014107;28;20485;-75
2022/10/18 02:47:31;;;;;;;102.88;4.53;;;11.70;99.90;;;;;;4996299;28;20032;-75
2022/10/18 02:49:56;;;;;;;10.07;1.92;;;11.70;99.90;;;;;;4996138;28;20030;-75
2022/10/18 02:52:22;;;;;;;10.00;2.25;;;11.70;99.90;;;;;;4996209;28;20018;-75
2022/10/18 02:54:48;;;;;;;13.13;2.13;;;11.60;99.90;;;;;;4996210;28;20420;-75
2022/10/18 02:57:13;;;;;;;6.07;2.42;;;11.60;99.90;;;;;;5013882;28;20022;-75
2022/10/18 02:59:39;;;;;;;49.08;2.97;;;11.60;99.90;;;;;;4996183;28;20025;-74
2022/10/18 03:02:04;;;;;;;8.70;2.10;;;11.60;99.90;;;;;;5013036;28;20044;-75
2022/10/18 03:04:30;;;;;;;8.88;2.53;;;11.60;99.90;;;;;;5013705;28;20473;-74
2022/10/18 03:06:55;;;;;;;9.48;1.92;;;11.60;99.90;;;;;;5014049;28;20370;-75
2022/10/18 03:09:21;;;;;;;2.50;2.10;;;11.60;99.90;;;;;;5014212;28;20018;-74
2022/10/18 03:11:46;;;;;;;24.95;2.40;;;11.60;99.90;;;;;;5013481;28;20018;-74
2022/10/18 03:14:12;;;;;;;9.63;2.13;;;11.60;99.90;;;;;;5013576;28;20025;-75
2022/10/18 03:16:38;;;;;;;142.32;5.32;;;;;;;;;;4995989;28;20232;-75
2022/10/18 03:19:04;;;;;;;18.65;1.80;;;11.50;99.90;;;;;;5013593;28;20073;-75
2022/10/18 03:21:29;;;;;;;93.82;3.80;;;11.50;99.90;;;;;;5013552;28;20046;-74
2022/10/18 03:23:55;;;;;;;15.52;2.03;;;11.40;99.90;;;;;;5013479;28;20026;-75
2022/10/18 03:26:20;;;;;;;16.23;2.30;;;11.40;99.90;;;;;;5013827;28;20503;-74
2022/10/18 03:28:46;;;;;;;56.17;3.17;;;11.30;99.90;;;;;;5013462;28;20029;-74
2022/10/18 03:31:12;;;;;;;9.40;1.95;;;11.30;99.90;;;;;;5013491;28;20022;-75
2022/10/18 03:33:38;;;;;;;16.88;2.00;;;11.30;99.90;;;;;;4995781;28;20022;-74
2022/10/18 03:36:04;;;;;;;7.50;1.63;;;11.40;99.90;;;;;;5013371;28;20428;-74
2022/10/18 03:38:29;;;;;;;18.02;2.15;;;11.30;99.90;;;;;;5013883;28;20022;-75
2022/10/18 03:40:55;;;;;;;24.52;2.63;;;11.30;99.90;;;;;;4995813;28;20018;-75
2022/10/18 03:43:21;;;;;;;23.20;2.83;;;11.30;99.90;;;;;;4995816;28;20076;-75
2022/10/18 03:45:46;;;;;;;4.85;1.83;;;11.20;99.90;;;;;;4995713;28;20033;-75
2022/10/18 03:48:12;;;;;;;5.68;1.70;;;11.20;99.90;;;;;;4995565;28;20034;-74
2022/10/18 03:50:41;;;;;;;6.05;2.50;;;11.20;99.90;;;;;;5013205;28;20066;-75
2022/10/18 03:53:07;;;;;;;8.15;2.08;;;11.20;99.90;;;;;;5013229;28;20121;-75
2022/10/18 03:55:32;;;;;;;6.57;1.90;;;11.20;99.90;;;;;;5013192;28;20455;-74
2022/10/18 03:57:58;;;;;;;9.38;2.20;;;11.20;99.90;;;;;;5013175;28;20052;-75
2022/10/18 04:00:23;;;;;;;23.02;2.58;;;11.20;99.90;;;;;;5013046;28;20097;-75
2022/10/18 04:02:49;;;;;;;33.50;2.70;;;11.20;99.90;;;;;;5013172;28;20478;-75
2022/10/18 04:05:15;;;;;;;22.65;1.90;;;11.20;99.90;;;;;;5013159;28;20036;-75
2022/10/18 04:07:40;;;;;;;14.98;1.50;;;11.10;99.90;;;;;;4995439;28;20033;-74
2022/10/18 04:10:06;;;;;;;27.95;2.30;;;11.10;99.90;;;;;;5013059;28;20080;-75
2022/10/18 04:12:32;;;;;;;34.38;2.10;;;11.00;99.90;;;;;;5015119;28;20041;-74
2022/10/18 04:14:58;;;;;;;29.67;1.83;;;10.90;99.90;;;;;;5017318;28;20025;-75
2022/10/18 04:17:23;;;;;;;18.60;2.70;;;10.80;99.90;;;;;;5016718;28;20097;-75
2022/10/18 04:19:49;;;;;;;16.52;2.13;;;10.80;99.90;;;;;;5016699;28;20018;-75
2022/10/18 04:22:14;;;;;;;29.20;2.60;;;10.80;99.90;;;;;;4999045;28;20018;-74
2022/10/18 04:24:40;;;;;;;3.03;1.60;;;10.70;99.90;;;;;;5016529;28;20030;-75
2022/10/18 04:27:06;;;;;;;9.30;1.60;;;10.80;99.90;;;;;;5016592;28;20032;-74
2022/10/18 04:29:32;;;;;;;168.27;5.25;;;10.80;99.90;;;;;;5016477;28;20036;-75
2022/10/18 04:31:58;;;;;;;67.30;2.85;;;10.70;99.90;;;;;;5016458;28;20085;-74
2022/10/18 04:34:24;;;;;;;18.45;1.55;;;10.70;99.90;;;;;;5016347;28;20069;-74
2022/10/18 04:36:49;;;;;;;26.50;2.70;;;10.70;99.90;;;;;;5016148;28;20076;-74
2022/10/18 04:39:15;;;;;;;19.67;2.15;;;10.70;99.90;;;;;;5016100;28;20072;-74
2022/10/18 04:41:40;;;;;;;21.60;2.47;;;10.70;99.90;;;;;;4998375;28;20026;-74
2022/10/18 04:44:06;;;;;;;16.92;2.33;;;10.70;99.90;;;;;;5016662;28;20066;-74
2022/10/18 04:46:32;;;;;;;17.95;2.28;;;10.60;99.90;;;;;;5016017;28;20102;-74
2022/10/18 04:49:00;;;;;;;14.82;2.22;;;10.60;99.90;;;;;;5015783;28;20084;-75
2022/10/18 04:51:25;;;;;;;12.10;2.22;;;10.70;99.90;;;;;;4998249;28;20042;-75
2022/10/18 04:53:54;;;;;;;16.20;2.90;;;10.70;99.90;;;;;;5015782;28;20179;-74
2022/10/18 04:56:19;;;;;;;9.63;2.00;;;10.60;99.90;;;;;;4998212;28;20022;-74
2022/10/18 04:58:45;;;;;;;69.88;4.22;;;10.60;99.90;;;;;;5015749;28;20022;-75
2022/10/18 05:01:10;;;;;;;63.25;3.42;;;10.60;99.90;;;;;;4998094;28;20025;-75
2022/10/18 05:03:36;;;;;;;32.28;2.80;;;10.60;99.90;;;;;;5015669;28;20401;-75
2022/10/18 05:06:02;;;;;;;15.40;2.35;;;10.60;99.90;;;;;;5015612;28;20033;-74
2022/10/18 05:08:28;;;;;;;26.08;3.50;;;10.50;99.90;;;;;;5015578;28;20095;-75
2022/10/18 05:10:53;;;;;;;12.88;2.97;;;10.50;99.90;;;;;;5015414;28;20465;-75
2022/10/18 05:13:19;;;;;;;10.18;2.15;;;10.50;99.90;;;;;;5015859;28;20125;-75
2022/10/18 05:15:48;;;;;;;11.85;2.20;;;10.50;99.90;;;;;;4997804;28;20495;-75
2022/10/18 05:18:13;;;;;;;10.63;1.77;;;10.60;99.90;;;;;;5015437;28;20037;-75
2022/10/18 05:20:39;;;;;;;8.57;2.00;;;10.50;99.90;;;;;;5015398;28;20018;-75
2022/10/18 05:23:05;;;;;;;8.43;1.80;;;10.60;99.90;;;;;;5015344;28;20029;-75
2022/10/18 05:25:30;;;;;;;16.55;2.35;;;10.60;99.90;;;;;;4997060;28;20453;-75
2022/10/18 05:27:56;;;;;;;9.60;2.30;;;10.60;99.90;;;;;;5015847;28;20036;-75
2022/10/18 05:30:21;;;;;;;15.80;2.35;;;10.60;99.90;;;;;;5015198;28;20072;-75
2022/10/18 05:32:47;;;;;;;7.53;2.05;;;10.60;99.90;;;;;;5015579;28;20376;-75
2022/10/18 05:35:13;;;;;;;17.30;2.88;;;10.70;99.90;;;;;;5015161;28;20029;-74
2022/10/18 05:37:38;;;;;;;16.20;2.55;;;10.70;99.90;;;;;;5015198;28;20018;-75
2022/10/18 05:40:04;;;;;;;8.73;1.83;;;11.30;99.90;;;;;;5015005;28;20033;-75
2022/10/18 05:42:30;;;;;;;19.23;2.83;;;10.70;99.90;;;;;;5014779;28;20475;-75
2022/10/18 05:44:55;;;;;;;22.77;2.33;;;10.80;99.90;;;;;;5014994;28;20021;-76
2022/10/18 05:47:21;;;;;;;21.95;3.30;;;10.80;99.90;;;;;;5014789;28;20473;-75
2022/10/18 05:49:46;;;;;;;18.65;2.40;;;10.80;99.90;;;;;;4997002;28;20406;-75
2022/10/18 05:52:12;;;;;;;15.73;3.03;;;10.80;99.90;;;;;;4997118;28;20025;-75
2022/10/18 05:54:37;;;;;;;20.52;2.30;;;10.90;99.90;;;;;;4997096;28;20026;-75
2022/10/18 05:57:03;;;;;;;20.38;2.03;;;10.90;99.90;;;;;;4997140;28;20492;-75
2022/10/18 05:59:28;;;;;;;10.85;1.92;;;10.90;99.90;;;;;;4996993;28;20064;-75
2022/10/18 06:01:54;;;;;;;13.30;2.05;;;10.90;99.90;;;;;;5014427;28;20033;-74
2022/10/18 06:04:20;;;;;;;19.58;2.85;;;11.00;99.90;;;;;;5015337;28;20022;-73
2022/10/18 06:06:45;;;;;;;13.32;2.25;;;11.00;99.90;;;;;;4996894;28;20026;-73
2022/10/18 06:09:11;;;;;;;11.30;2.08;;;11.00;99.90;;;;;;5014624;28;20021;-73
2022/10/18 06:11:36;;;;;;;23.70;2.55;;;11.00;99.90;;;;;;4996836;28;20044;-73
2022/10/18 06:14:03;;;;;;;15.40;2.08;;;11.00;99.90;;;;;;5014925;28;20022;-73
2022/10/18 06:16:29;;;;;;;11.05;1.88;;;11.10;99.90;;;;;;5014455;28;20465;-73
2022/10/18 06:18:56;;;;;;;11.25;2.10;;;11.10;99.90;;;;;;4996825;28;20021;-73
2022/10/18 06:21:23;;;;;;;3.85;1.60;;;11.10;99.90;;;;;;5014328;28;20516;-73
2022/10/18 06:23:50;;;;;;;4.13;1.75;;;11.10;99.90;;;;;;5014333;28;20104;-73
2022/10/18 06:26:16;;;;;;;1.90;1.35;;;11.10;99.90;;;;;;5014221;28;20054;-73
2022/10/18 06:28:41;;;;;;;6.88;1.35;;;11.10;99.90;;;;;;5014247;28;20065;-73
2022/10/18 06:31:08;;;;;;;9.75;2.13;;;11.10;99.90;;;;;;4996606;28;20052;-73
2022/10/18 06:33:35;;;;;;;2.88;1.60;;;11.10;99.90;;;;;;5014145;28;20036;-73
2022/10/18 06:36:11;;;;;;;4.13;1.27;;;11.10;99.90;;;;;;5013603;28;20040;-73
2022/10/18 06:38:37;;;;;;;8.68;1.38;;;11.10;99.90;;;;;;5014096;28;20041;-73
2022/10/18 06:41:04;;;;;;;2.92;1.45;;;11.10;99.90;;;;;;5014264;28;20018;-73
2022/10/18 06:43:30;;;;;;;6.15;1.35;;;11.10;99.90;;;;;;5014008;28;20030;-74
2022/10/18 06:45:56;;;;;;;21.92;1.33;;;11.10;99.90;;;;;;5014042;28;20042;-74
2022/10/18 06:48:22;;;;;;;4.15;1.30;;;11.00;99.90;;;;;;5013897;28;20516;-73
2022/10/18 06:51:07;;;;;;;0.90;0.80;;;11.00;99.90;;;;;;4996371;28;20033;-73
2022/10/18 06:53:35;;;;;;;1.40;1.30;;;11.00;99.90;;;;;;5013955;28;20049;-75
2022/10/18 06:56:06;;;;;;;27.75;1.88;;;11.00;99.90;;;;;;5013915;28;20025;-74
2022/10/18 06:58:33;;;;;;;1.75;1.00;;;11.00;99.90;;;;;;4996491;28;20022;-74
2022/10/18 07:03:29;;;;;;;20.85;1.08;;;11.00;99.90;;;;;;5050691;28;20099;-74
2022/10/18 07:06:00;;;;;;;8.15;1.02;;;11.00;99.90;;;;;;5053361;28;20020;-74
2022/10/18 07:08:26;;;;;;;20.52;1.80;;;11.10;99.90;;;;;;5035896;28;20489;-74
2022/10/18 07:10:52;;;;;;;30.67;1.88;;;11.10;99.90;;;;;;5041388;28;20025;-74
2022/10/18 07:13:18;;;;;;;29.42;1.60;;;11.10;99.90;;;;;;5053279;28;20057;-74
2022/10/18 07:15:44;;;;;;;45.90;2.38;;;11.10;99.90;;;;;;5053733;28;20076;-74
2022/10/18 07:18:09;;;;;;;55.55;3.55;;;11.20;99.90;;;;;;5053211;28;20041;-73
2022/10/18 07:20:35;;;;;;;47.33;2.75;;;11.20;99.90;;;;;;5051855;28;20021;-74
2022/10/18 07:23:00;;;;;;;8.70;1.08;;;11.20;99.90;;;;;;5051913;28;20029;-74
2022/10/18 07:25:26;;;;;;;23.00;1.50;;;11.30;99.90;;;;;;5053693;28;20036;-73
2022/10/18 07:27:51;;;;;;;23.45;1.70;;;11.30;99.90;;;;;;5051806;28;20025;-74
2022/10/18 07:30:17;;;;;;;15.27;1.15;;;11.40;99.90;;;;;;5053057;28;20392;-74
2022/10/18 07:32:43;;;;;;;31.70;1.42;;;11.50;99.90;;;;;;5053014;28;20519;-74
2022/10/18 07:35:08;;;;;;;46.78;1.38;;;11.40;99.90;;;;;;5053059;28;20496;-74
2022/10/18 07:37:34;;;;;;;23.20;1.80;;;11.50;99.90;;;;;;5052978;28;20541;-74
2022/10/18 07:39:59;;;;;;;56.95;2.25;;;11.50;99.90;;;;;;5051725;28;20044;-74
2022/10/18 07:42:25;;;;;;;31.25;0.95;;;11.50;99.90;;;;;;5053112;28;20079;-73
2022/10/18 07:44:50;;;;;;;39.58;1.85;;;11.60;99.90;;;;;;5052320;28;20033;-74
2022/10/18 07:47:17;;;;;;;37.63;2.85;;;11.60;99.90;;;;;;5054284;28;20484;-74
2022/10/18 07:49:42;;;;;;;26.25;1.88;;;11.60;99.90;;;;;;5055725;28;20024;-74
2022/10/18 07:52:08;;;;;;;21.02;1.13;;;11.70;99.90;;;;;;5056850;28;20029;-75
2022/10/18 07:54:33;;;;;;;13.65;1.70;;;11.80;99.90;;;;;;5056951;28;20028;-74
2022/10/18 07:56:58;;;;;;;68.22;2.65;;;11.90;99.90;;;;;;5055583;28;20017;-74
2022/10/18 07:59:24;;;;;;;24.33;1.50;;;11.90;99.90;;;;;;5056824;28;20028;-74
2022/10/18 08:01:50;;;;;;;23.65;1.65;;;12.00;99.90;;;;;;5056568;28;20032;-74
2022/10/18 08:04:15;;;;;;;35.75;1.42;;;12.00;99.90;;;;;;5057617;28;20099;-74
2022/10/18 08:06:41;;;;;;;29.33;2.55;;;12.00;99.90;;;;;;5057337;28;20028;-74
2022/10/18 08:09:06;;;;;;;5.95;1.02;;;12.10;99.90;;;;;;5056636;28;20020;-74
2022/10/18 08:11:32;;;;;;;22.65;1.52;;;12.20;99.90;;;;;;5055278;28;20025;-74
2022/10/18 08:13:57;;;;;;;4.05;0.98;;;12.30;99.90;;;;;;5056608;28;20025;-75
2022/10/18 08:16:26;;;;;;;11.90;0.98;;;12.30;99.90;;;;;;5057118;28;20103;-74
2022/10/18 08:18:52;;;;;;;4.47;1.42;;;12.40;99.90;;;;;;5056451;28;20035;-74
2022/10/18 08:21:19;;;;;;;6.35;1.75;;;12.50;99.90;;;;;;5056898;28;20025;-74
2022/10/18 08:23:45;;;;;;;3.55;1.88;;;12.60;99.90;;;;;;5056468;28;20056;-74
2022/10/18 08:26:13;;;;;;;5.85;1.90;;;12.70;99.90;;;;;;5056300;28;20061;-73
2022/10/18 08:28:39;;;;;;;3.85;1.52;;;12.90;99.90;;;;;;5056417;28;20025;-74
2022/10/18 08:31:07;;;;;;;5.40;1.75;;;13.00;99.90;;;;;;5056209;28;20549;-76
2022/10/18 08:33:34;;;;;;;5.23;1.73;;;13.10;99.90;;;;;;5056150;28;20476;-74
2022/10/18 08:36:04;;;;;;;4.97;2.15;;;13.20;99.90;;;;;;5056082;28;20488;-74
2022/10/18 08:38:31;;;;;;;5.68;1.73;;;13.20;99.90;;;;;;5056182;28;20392;-74
2022/10/18 08:41:17;;;;;;;5.13;2.00;;;13.30;99.90;;;;;;5055872;28;20032;-74
2022/10/18 08:43:52;;;;;;;13.20;2.20;;;13.40;99.90;;;;;;5055068;28;20025;-74
2022/10/18 08:46:21;;;;;;;3.50;1.55;;;13.60;99.90;;;;;;5054739;28;20020;-74
2022/10/18 08:48:52;;;;;;;4.90;1.80;;;13.70;99.90;;;;;;5056269;28;20036;-74
2022/10/18 08:51:33;;;;;;;6.25;1.95;;;13.80;99.90;;;;;;5055935;28;20476;-74
2022/10/18 08:54:21;;;;;;;4.55;1.90;;;14.00;99.90;;;;;;5055781;28;20067;-74
2022/10/18 08:57:01;;;;;;;3.63;2.17;;;14.10;99.90;;;;;;5056324;28;20081;-75
2022/10/18 08:59:39;;;;;;;6.57;1.73;;;14.20;99.90;;;;;;5054817;28;20021;-74
2022/10/18 09:02:14;;;;;;;7.82;0.70;;;14.30;99.90;;;;;;5055593;28;20033;-74
2022/10/18 09:04:55;;;;;;;13.43;1.50;;;14.40;99.90;;;;;;5056243;28;20025;-74
2022/10/18 09:07:45;;;;;;;10.32;1.67;;;14.60;99.90;;;;;;5055603;28;20029;-74
2022/10/18 09:10:35;;;;;;;2.72;1.23;;;14.70;99.90;;;;;;5055522;28;20013;-74
2022/10/18 09:13:23;;;;;;;6.53;0.75;;;14.80;99.90;;;;;;5055390;28;20028;-74
2022/10/18 09:16:04;;;;;;;6.65;1.63;;;14.90;99.90;;;;;;5014239;28;20044;-74
2022/10/18 09:18:54;;;;;;;4.93;0.98;;;15.10;99.90;;;;;;5055418;28;20361;-74
2022/10/18 09:21:29;;;;;;;5.78;0.35;;;15.20;99.90;;;;;;5054036;28;20028;-74
2022/10/18 09:24:20;;;;;;;4.07;0.82;;;15.30;99.90;;;;;;5054092;28;20025;-74
2022/10/18 09:26:48;;;;;;;4.00;0.50;;;15.30;99.90;;;;;;5055330;28;20397;-74
2022/10/18 09:29:29;;;;;;;2.93;0.40;;;15.50;99.90;;;;;;5055737;28;20502;-74
2022/10/18 09:32:17;;;;;;;4.32;0.38;;;15.60;99.90;;;;;;5055137;28;20514;-74
2022/10/18 09:34:59;;;;;;;5.15;0.55;;;15.70;99.90;;;;;;5055661;28;20040;-74
2022/10/18 09:37:29;;;;;;;5.93;0.45;;;15.80;99.90;;;;;;5055300;28;20025;-74
2022/10/18 09:40:01;;;;;;;3.30;0.10;;;15.90;99.90;;;;;;5053650;28;20048;-74
2022/10/18 09:42:41;;;;;;;2.95;0.43;;;15.90;99.90;;;;;;5055173;28;20498;-74
2022/10/18 09:45:22;;;;;;;1.90;0.20;;;16.00;99.90;;;;;;5054921;28;20032;-74
2022/10/18 09:50:54;;;;;;;6.50;0.40;;;16.20;99.90;;;;;;5033552;28;20034;-72
2022/10/18 09:53:20;;;;;;;;;;;16.30;99.90;;;;;;5035157;28;20397;-74
2022/10/18 09:55:58;;;;;;;6.85;0.57;;;16.30;99.90;;;;;;5034821;28;19909;-74
2022/10/18 09:58:30;;;;;;;3.33;0.10;;;16.40;99.90;;;;;;5033582;28;20052;-74
2022/10/18 10:00:55;;;;;;;4.78;0.55;;;16.50;99.90;;;;;;5035169;28;20101;-74
2022/10/18 10:03:21;;;;;;;2.53;0.10;;;16.60;99.90;;;;;;5034516;28;20056;-74
2022/10/18 10:06:15;;;;;;;2.75;0.03;;;16.70;99.90;;;;;;5034658;28;20064;-74
2022/10/18 10:08:48;;;;;;;3.20;0.35;;;16.80;99.90;;;;;;5035196;28;20029;-74
2022/10/18 10:11:36;;;;;;;4.97;0.00;;;16.90;99.90;;;;;;5034226;28;20451;-74
2022/10/18 10:14:21;;;;;;;5.80;0.57;;;17.00;99.90;;;;;;5033075;28;20037;-74
2022/10/18 10:16:51;;;;;;;2.85;0.00;;;17.10;99.90;;;;;;5034036;28;20044;-75
2022/10/18 10:19:27;;;;;;;4.10;0.03;;;17.10;99.90;;;;;;5033115;28;20060;-73
2022/10/18 10:22:04;;;;;;;6.13;0.57;;;17.20;99.90;;;;;;5034250;28;20026;-72
2022/10/18 10:24:47;;;;;;;4.70;0.10;;;17.20;99.90;;;;;;5033066;28;20452;-75
2022/10/18 10:27:39;;;;;;;9.68;0.45;;;17.30;99.90;;;;;;5034289;28;20029;-74
2022/10/18 10:30:22;;;;;;;4.78;0.38;;;17.40;99.90;;;;;;5032892;28;20036;-75
2022/10/18 10:32:51;;;;;;;8.38;0.38;;;17.40;99.90;;;;;;5034206;28;20610;-73
2022/10/18 10:35:35;;;;;;;9.73;0.32;;;17.40;99.90;;;;;;5032747;28;20029;-73
2022/10/18 10:38:02;;;;;;;2.78;0.47;;;17.50;99.90;;;;;;5034254;28;20500;-73
2022/10/18 10:40:35;;;;;;;2.35;0.20;;;17.50;99.90;;;;;;5034251;28;20088;-73
2022/10/18 10:43:44;;;;;;;4.90;0.00;;;17.50;99.90;;;;;;5033921;28;20028;-73
2022/10/18 10:46:11;;;;;;;4.35;0.00;;;17.60;99.90;;;;;;5033829;28;20020;-73
2022/10/18 10:48:48;;;;;;;4.55;0.08;;;17.70;99.90;;;;;;5033719;28;20087;-73
2022/10/18 10:51:17;;;;;;;3.08;0.38;;;17.80;99.90;;;;;;5032595;28;20488;-74
2022/10/18 10:53:57;;;;;;;7.75;0.17;;;17.90;99.90;;;;;;5032190;28;20383;-74
2022/10/18 10:56:35;;;;;;;4.85;0.47;;;17.90;99.90;;;;;;5034153;28;20100;-74
2022/10/18 10:59:16;;;;;;;6.53;0.55;;;18.00;99.90;;;;;;5033655;28;20167;-74
2022/10/18 11:01:42;;;;;;;0.50;0.00;;;18.00;99.90;;;;;;5032326;28;20021;-74
2022/10/18 11:04:25;;;;;;;5.93;0.20;;;18.10;99.90;;;;;;5033993;28;20026;-74
2022/10/18 11:06:54;;;;;;;6.32;0.28;;;18.20;99.90;;;;;;5032240;28;20494;-74
2022/10/18 11:09:32;;;;;;;3.90;0.00;;;18.30;99.90;;;;;;5032037;28;20543;-74
2022/10/18 11:12:11;;;;;;;4.45;0.13;;;18.40;99.90;;;;;;5033412;28;20442;-74
2022/10/18 11:14:42;;;;;;;2.45;0.00;;;18.50;99.90;;;;;;5033340;28;20030;-74
2022/10/18 11:17:26;;;;;;;4.30;0.10;;;18.50;99.90;;;;;;5033877;28;20041;-74
2022/10/18 11:20:14;;;;;;;1.00;0.00;;;18.70;99.90;;;;;;5033260;28;20029;-73
2022/10/18 11:22:43;;;;;;;2.30;0.00;;;18.70;99.90;;;;;;5032797;28;20026;-74
2022/10/18 11:25:14;;;;;;;4.93;0.00;;;18.80;99.90;;;;;;5032053;28;20068;-74
2022/10/18 11:27:52;;;;;;;4.55;0.20;;;18.90;99.90;;;;;;5031970;28;20387;-73
2022/10/18 11:30:52;;;;;;;1.88;0.00;;;19.00;99.90;;;;;;5033174;28;20033;-76
2022/10/18 11:33:39;;;;;;;2.17;0.20;;;19.10;99.90;;;;;;5033090;28;20033;-74
2022/10/18 11:36:11;;;;;;;3.42;0.00;;;19.20;99.90;;;;;;5033201;28;20029;-74
2022/10/18 11:38:59;;;;;;;4.80;0.00;;;19.30;99.90;;;;;;5033187;28;20579;-74
2022/10/18 11:41:27;;;;;;;2.90;0.10;;;19.50;99.90;;;;;;5032995;28;20026;-75
2022/10/18 11:43:57;;;;;;;2.67;0.13;;;19.50;99.90;;;;;;5031861;28;20038;-75
2022/10/18 11:46:52;;;;;;;4.85;0.00;;;19.50;99.90;;;;;;5033200;28;20071;-75
2022/10/18 11:49:48;;;;;;;2.17;0.15;;;19.60;99.90;;;;;;5031749;28;20092;-75
2022/10/18 11:52:23;;;;;;;1.52;0.00;;;19.70;99.90;;;;;;5033056;28;20076;-74
2022/10/18 11:55:04;;;;;;;4.15;0.00;;;19.80;99.90;;;;;;5033024;28;20417;-74
2022/10/18 11:57:39;;;;;;;1.27;0.00;;;19.90;99.90;;;;;;5033609;28;20468;-74
2022/10/18 12:00:29;;;;;;;3.42;0.00;;;19.90;99.90;;;;;;5031693;28;20018;-73
2022/10/18 12:03:16;;;;;;;0.55;0.00;;;19.80;99.90;;;;;;5032916;28;20025;-74
2022/10/18 12:05:45;;;;;;;2.78;0.00;;;19.90;99.90;;;;;;5033412;28;20033;-74
2022/10/18 12:08:32;;;;;;;4.25;0.75;;;19.90;99.90;;;;;;5033349;28;20018;-74
2022/10/18 12:11:02;;;;;;;1.88;0.17;;;20.10;99.90;;;;;;5031550;28;20029;-74
2022/10/18 12:13:45;;;;;;;2.53;0.00;;;20.20;99.90;;;;;;5031977;28;20071;-73
2022/10/18 12:16:11;;;;;;;0.85;0.00;;;20.20;99.90;;;;;;5032783;28;20520;-73
2022/10/18 12:18:58;;;;;;;4.22;0.35;;;20.10;99.90;;;;;;5031411;28;20104;-74
2022/10/18 12:21:28;;;;;;;4.10;0.00;;;20.30;99.90;;;;;;5032117;28;20044;-74
2022/10/18 12:24:06;;;;;;;1.67;0.05;;;20.40;99.90;;;;;;5031443;28;20025;-74
2022/10/18 12:26:32;;;;;;;0.75;0.00;;;20.50;99.90;;;;;;5032795;28;20033;-74
2022/10/18 12:29:27;;;;;;;1.98;0.10;;;20.60;99.90;;;;;;5032467;28;20030;-74
2022/10/18 12:32:02;;;;;;;4.20;0.13;;;20.60;99.90;;;;;;5031276;28;20021;-74
2022/10/18 12:34:52;;;;;;;3.80;0.00;;;20.60;99.90;;;;;;5035446;28;20100;-74
2022/10/18 12:37:39;;;;;;;1.95;0.00;;;20.70;99.90;;;;;;5035494;28;20029;-74
2022/10/18 12:40:22;;;;;;;4.10;0.55;;;20.90;99.90;;;;;;5034850;28;20040;-74
2022/10/18 12:42:49;;;;;;;2.47;0.10;;;20.80;99.90;;;;;;5036852;28;20108;-74
2022/10/18 12:45:21;;;;;;;1.80;0.00;;;20.90;99.90;;;;;;5036243;28;20052;-74
2022/10/18 12:47:50;;;;;;;1.98;0.20;;;21.00;99.90;;;;;;5036075;28;20507;-74
2022/10/18 12:50:30;;;;;;;1.02;0.00;;;21.10;99.90;;;;;;5034709;28;20522;-74
2022/10/18 12:53:11;;;;;;;3.75;0.00;;;21.10;99.90;;;;;;5034617;28;20112;-73
2022/10/18 12:55:42;;;;;;;4.57;0.38;;;21.30;99.90;;;;;;5035992;28;20029;-74
2022/10/18 12:58:16;;;;;;;2.97;0.00;;;21.30;99.90;;;;;;5036474;28;20096;-74
2022/10/18 13:00:42;;;;;;;0.47;0.00;;;21.50;99.90;;;;;;5036053;28;20506;-72
2022/10/18 13:03:16;;;;;;;1.60;0.00;;;21.60;99.90;;;;;;5034582;28;20030;-74
2022/10/18 13:05:51;;;;;;;1.98;0.00;;;21.70;99.90;;;;;;5034558;28;20381;-74
2022/10/18 13:08:29;;;;;;;2.20;0.45;;;21.70;99.90;;;;;;5035680;28;20029;-74
2022/10/18 13:11:00;;;;;;;5.82;0.10;;;21.70;99.90;;;;;;5035707;28;20025;-73